Time;durP1;ratioP1;P1;durP2;ratioP2;P2;SDS_P1;SDS_P2;PMS_P1;PMS_P2;Temp;Humidity;BMP_temperature;BMP_pressure;BME280_temperature;BME280_humidity;BME280_pressure;Samples;Min_cycle;Max_cycle;Signal;HPM_P1;HPM_P2
2023/04/16 00:00:37;;;;;;;24.20;15.83;;;;;;;7.50;100.00;98049.84;5071721;28;20211;-79
2023/04/16 00:03:04;;;;;;;24.07;16.00;;;;;;;7.50;100.00;98044.56;5073026;28;20320;-77
2023/04/16 00:05:30;;;;;;;23.13;15.10;;;;;;;7.51;100.00;98041.88;5072833;28;20278;-77
2023/04/16 00:07:57;;;;;;;24.47;15.83;;;;;;;7.51;100.00;98047.13;5072892;28;20221;-77
2023/04/16 00:10:23;;;;;;;22.23;15.83;;;;;;;7.53;100.00;98049.66;5072149;28;20234;-78
2023/04/16 00:12:51;;;;;;;22.73;15.70;;;;;;;7.48;100.00;98044.66;5072466;28;20231;-78
2023/04/16 00:15:17;;;;;;;23.50;15.60;;;;;;;7.49;100.00;98041.13;5072360;28;20214;-78
2023/04/16 00:17:44;;;;;;;23.23;15.73;;;;;;;7.49;100.00;98050.78;5072746;28;20233;-78
2023/04/16 00:20:10;;;;;;;23.60;15.53;;;;;;;7.44;100.00;98048.41;5072121;28;20228;-78
2023/04/16 00:22:37;;;;;;;24.77;15.17;;;;;;;7.49;100.00;98048.16;5072350;28;20243;-76
2023/04/16 00:25:04;;;;;;;22.93;15.13;;;;;;;7.51;100.00;98051.53;5072346;28;20244;-77
2023/04/16 00:27:30;;;;;;;26.63;15.70;;;;;;;7.45;100.00;98060.63;5072624;28;20214;-77
2023/04/16 00:29:58;;;;;;;20.23;14.50;;;;;;;7.49;100.00;98056.03;5071918;28;20221;-78
2023/04/16 00:32:25;;;;;;;21.77;14.73;;;;;;;7.43;100.00;98053.75;5072536;28;20235;-78
2023/04/16 00:34:51;;;;;;;22.73;15.03;;;;;;;7.52;100.00;98051.44;5072708;28;20205;-78
2023/04/16 00:37:18;;;;;;;22.37;15.90;;;;;;;7.50;100.00;98055.09;5072273;28;20220;-78
2023/04/16 00:39:45;;;;;;;23.53;15.87;;;;;;;7.50;100.00;98057.72;5071571;28;20207;-78
2023/04/16 00:42:12;;;;;;;21.97;15.17;;;;;;;7.52;100.00;98046.19;5071874;28;20240;-78
2023/04/16 00:44:38;;;;;;;23.40;15.07;;;;;;;7.47;100.00;98050.84;5071881;28;20228;-78
2023/04/16 00:47:06;;;;;;;21.87;15.17;;;;;;;7.47;100.00;98050.03;5072144;28;20216;-78
2023/04/16 00:49:33;;;;;;;20.60;14.70;;;;;;;7.46;100.00;98058.81;5071278;28;20204;-78
2023/04/16 00:52:01;;;;;;;20.30;14.20;;;;;;;7.46;100.00;98058.81;5071775;28;20234;-78
2023/04/16 00:54:28;;;;;;;20.90;14.70;;;;;;;7.47;100.00;98055.28;5071861;28;20266;-78
2023/04/16 00:56:55;;;;;;;22.60;14.43;;;;;;;7.44;100.00;98053.69;5071688;28;20559;-78
2023/04/16 00:59:22;;;;;;;20.57;14.47;;;;;;;7.42;100.00;98052.06;5070359;28;20226;-78
2023/04/16 01:01:48;;;;;;;21.90;14.90;;;;;;;7.47;100.00;98050.03;5071663;28;20207;-77
2023/04/16 01:04:16;;;;;;;21.73;14.33;;;;;;;7.43;100.00;98049.34;5071767;28;20209;-77
2023/04/16 01:06:43;;;;;;;21.73;13.93;;;;;;;7.43;100.00;98052.00;5071615;28;20207;-77
2023/04/16 01:09:09;;;;;;;21.30;15.07;;;;;;;7.51;100.00;98048.88;5070763;28;20207;-78
2023/04/16 01:11:37;;;;;;;21.33;14.93;;;;;;;7.49;100.00;98053.41;5071448;28;20299;-77
2023/04/16 01:14:03;;;;;;;22.40;14.37;;;;;;;7.46;100.00;98048.31;5070941;28;20207;-77
2023/04/16 01:16:30;;;;;;;22.00;14.87;;;;;;;7.47;100.00;98050.03;5071514;28;20215;-77
2023/04/16 01:18:56;;;;;;;21.37;14.57;;;;;;;7.41;100.00;98053.84;5071412;28;20700;-78
2023/04/16 01:21:24;;;;;;;22.73;15.03;;;;;;;7.41;100.00;98060.91;5070719;28;20214;-78
2023/04/16 01:23:51;;;;;;;22.40;14.77;;;;;;;7.37;100.00;98056.75;5071004;28;20614;-78
2023/04/16 01:26:17;;;;;;;19.10;13.10;;;;;;;7.39;100.00;98070.63;5071433;28;20233;-78
2023/04/16 01:28:44;;;;;;;22.13;15.00;;;;;;;7.39;100.00;98062.75;5071225;28;20213;-78
2023/04/16 01:31:10;;;;;;;19.70;13.07;;;;;;;7.39;100.00;98058.34;5070017;28;20220;-78
2023/04/16 01:33:37;;;;;;;16.70;12.10;;;;;;;7.40;100.00;98059.19;5071205;28;20260;-78
2023/04/16 01:36:04;;;;;;;20.30;12.77;;;;;;;7.39;100.00;98052.22;5071116;28;20201;-78
2023/04/16 01:38:32;;;;;;;16.30;11.53;;;;;;;7.45;100.00;98068.50;5070920;28;20246;-78
2023/04/16 01:40:59;;;;;;;19.47;12.40;;;;;;;7.43;100.00;98061.66;5070353;28;20214;-77
2023/04/16 01:43:25;;;;;;;18.20;12.60;;;;;;;7.41;100.00;98069.63;5071128;28;20229;-77
2023/04/16 01:45:53;;;;;;;16.37;11.50;;;;;;;7.47;100.00;98071.88;5070955;28;20232;-78
2023/04/16 01:48:20;;;;;;;18.13;11.50;;;;;;;7.44;100.00;98061.56;5071082;28;20204;-78
2023/04/16 01:50:46;;;;;;;17.47;12.07;;;;;;;7.47;100.00;98071.06;5070271;28;20232;-77
2023/04/16 01:53:13;;;;;;;17.17;11.97;;;;;;;7.46;100.00;98069.34;5070835;28;20239;-78
2023/04/16 01:55:40;;;;;;;17.63;12.13;;;;;;;7.45;100.00;98070.28;5071119;28;20300;-77
2023/04/16 01:58:09;;;;;;;20.33;12.67;;;;;;;7.42;100.00;98070.47;5070926;28;20217;-77
2023/04/16 02:00:36;;;;;;;17.57;12.50;;;;;;;7.47;100.00;98066.63;5070438;28;20207;-77
2023/04/16 02:03:03;;;;;;;18.80;12.23;;;;;;;7.42;100.00;98067.84;5070945;28;20230;-77
2023/04/16 02:05:29;;;;;;;19.10;12.27;;;;;;;7.42;100.00;98068.66;5070953;28;20255;-77
2023/04/16 02:07:55;;;;;;;21.57;12.67;;;;;;;7.42;100.00;98068.66;5071258;28;20219;-78
2023/04/16 02:10:22;;;;;;;20.20;13.40;;;;;;;7.41;100.00;98066.16;5070138;28;20222;-78
2023/04/16 02:12:50;;;;;;;19.37;13.23;;;;;;;7.45;100.00;98068.50;5070792;28;20259;-78
2023/04/16 02:15:16;;;;;;;19.73;12.40;;;;;;;7.39;100.00;98063.59;5070881;28;20204;-77
2023/04/16 02:17:45;;;;;;;17.70;12.40;;;;;;;7.42;100.00;98065.22;5070675;28;20204;-78
2023/04/16 02:20:12;;;;;;;20.43;13.30;;;;;;;7.39;100.00;98068.88;5069866;28;20216;-77
2023/04/16 02:22:38;;;;;;;21.10;13.83;;;;;;;7.39;100.00;98065.38;5085175;22;20237;-87
2023/04/16 02:25:05;;;;;;;22.60;14.43;;;;;;;7.39;100.00;98062.75;5073042;28;20234;-80
2023/04/16 02:27:32;;;;;;;19.60;13.77;;;;;;;7.45;100.00;98065.03;5074897;28;20214;-87
2023/04/16 02:30:00;;;;;;;21.07;13.93;;;;;;;7.45;100.00;98073.78;5074140;28;20215;-87
2023/04/16 02:32:26;;;;;;;21.00;13.53;;;;;;;7.45;100.00;98078.16;5074988;28;20234;-87
2023/04/16 02:34:53;;;;;;;21.90;14.17;;;;;;;7.40;100.00;98069.69;5074668;28;20203;-87
2023/04/16 02:37:20;;;;;;;19.40;14.00;;;;;;;7.43;100.00;98075.66;5074828;28;20229;-88
2023/04/16 02:39:48;;;;;;;22.03;14.23;;;;;;;7.41;100.00;98074.03;5074631;28;20214;-88
2023/04/16 02:42:15;;;;;;;21.73;14.80;;;;;;;7.40;100.00;98081.06;5074637;28;20206;-87
2023/04/16 02:44:41;;;;;;;22.33;15.13;;;;;;;7.39;100.00;98078.53;5074547;28;20216;-88
2023/04/16 02:47:09;;;;;;;23.27;15.20;;;;;;;7.40;100.00;98072.31;5074444;28;20402;-87
2023/04/16 02:49:36;;;;;;;26.37;15.70;;;;;;;7.40;100.00;98075.81;5073988;28;20233;-88
2023/04/16 02:52:02;;;;;;;20.90;13.73;;;;;;;7.43;100.00;98073.03;5074645;28;20209;-88
2023/04/16 02:54:28;;;;;;;20.23;13.87;;;;;;;7.39;100.00;98073.25;5074325;28;20210;-87
2023/04/16 02:56:55;;;;;;;22.67;14.30;;;;;;;7.46;100.00;98066.72;5074192;28;20215;-88
2023/04/16 02:59:22;;;;;;;21.87;14.47;;;;;;;7.42;100.00;98073.94;5073544;28;20214;-88
2023/04/16 03:01:48;;;;;;;20.27;13.63;;;;;;;7.39;100.00;98078.53;5074237;28;20748;-87
2023/04/16 03:04:16;;;;;;;22.60;13.73;;;;;;;7.42;100.00;98078.34;5074272;28;20248;-87
2023/04/16 03:06:43;;;;;;;22.73;14.53;;;;;;;7.41;100.00;98076.66;5074354;28;20239;-88
2023/04/16 03:09:09;;;;;;;23.10;14.67;;;;;;;7.44;100.00;98079.09;5073615;28;20667;-88
2023/04/16 03:11:36;;;;;;;22.60;13.77;;;;;;;7.41;100.00;98081.94;5074242;28;20265;-88
2023/04/16 03:14:02;;;;;;;21.23;13.20;;;;;;;7.44;100.00;98081.75;5074297;28;20234;-88
2023/04/16 03:16:29;;;;;;;23.63;14.43;;;;;;;7.41;100.00;98087.19;5074075;28;20212;-86
2023/04/16 03:18:55;;;;;;;22.17;13.60;;;;;;;7.38;100.00;98087.34;5073981;28;20633;-86
2023/04/16 03:21:23;;;;;;;20.30;13.90;;;;;;;7.42;100.00;98088.88;5073719;28;20227;-86
2023/04/16 03:23:52;;;;;;;20.03;13.10;;;;;;;7.37;100.00;98085.66;5074077;28;20621;-86
2023/04/16 03:26:18;;;;;;;23.40;13.57;;;;;;;7.38;100.00;98082.09;5074230;28;20324;-86
2023/04/16 03:28:45;;;;;;;21.40;13.73;;;;;;;7.38;100.00;98082.94;5074413;28;20213;-86
2023/04/16 03:31:11;;;;;;;21.17;13.17;;;;;;;7.41;100.00;98092.44;5073651;28;20212;-85
2023/04/16 03:33:38;;;;;;;21.80;13.67;;;;;;;7.36;100.00;98097.13;5073692;28;20317;-86
2023/04/16 03:36:05;;;;;;;18.23;12.33;;;;;;;7.41;100.00;98098.53;5073193;28;20204;-85
2023/04/16 03:38:33;;;;;;;19.60;12.30;;;;;;;7.37;100.00;98098.81;5073691;28;20251;-86
2023/04/16 03:40:59;;;;;;;20.53;12.77;;;;;;;7.41;100.00;98097.72;5073104;28;20209;-82
2023/04/16 03:43:26;;;;;;;20.73;13.20;;;;;;;7.35;100.00;98098.88;5073451;28;20231;-87
2023/04/16 03:45:52;;;;;;;20.53;12.23;;;;;;;7.38;100.00;98101.34;5073953;28;20595;-87
2023/04/16 03:48:19;;;;;;;18.93;13.07;;;;;;;7.37;100.00;98109.31;5073729;28;20211;-86
2023/04/16 03:50:46;;;;;;;21.77;13.47;;;;;;;7.43;100.00;98096.69;5072827;28;20229;-87
2023/04/16 03:53:13;;;;;;;20.90;13.53;;;;;;;7.45;100.00;98104.47;5073473;28;20302;-87
2023/04/16 03:55:41;;;;;;;23.37;12.80;;;;;;;7.43;100.00;98101.09;5073613;28;20204;-87
2023/04/16 03:58:07;;;;;;;21.57;13.27;;;;;;;7.42;100.00;98109.91;5073502;28;20217;-87
2023/04/16 04:00:34;;;;;;;21.73;13.73;;;;;;;7.40;100.00;98102.09;5072796;28;20665;-87
2023/04/16 04:03:00;;;;;;;23.93;13.70;;;;;;;7.41;100.00;98108.22;5073578;28;20782;-86
2023/04/16 04:05:27;;;;;;;20.30;13.43;;;;;;;7.41;100.00;98105.59;5073888;28;20208;-87
2023/04/16 04:07:53;;;;;;;23.00;13.47;;;;;;;7.41;100.00;98106.44;5076897;28;20209;-87
2023/04/16 04:10:20;;;;;;;25.60;14.53;;;;;;;7.36;100.00;98111.09;5076942;28;20205;-86
2023/04/16 04:12:48;;;;;;;27.57;15.10;;;;;;;7.35;100.00;98109.41;5076147;28;20235;-84
2023/04/16 04:15:14;;;;;;;22.90;14.47;;;;;;;7.36;100.00;98116.34;5094067;28;20293;-86
2023/04/16 04:17:41;;;;;;;21.40;13.33;;;;;;;7.43;100.00;98111.59;5094840;28;20756;-86
2023/04/16 04:20:08;;;;;;;22.10;14.17;;;;;;;7.38;100.00;98119.75;5091563;28;20212;-86
2023/04/16 04:22:34;;;;;;;22.73;14.53;;;;;;;7.32;100.00;98117.47;5093681;28;20241;-86
2023/04/16 04:25:01;;;;;;;21.47;13.07;;;;;;;7.35;100.00;98114.66;5093967;28;20215;-85
2023/04/16 04:27:27;;;;;;;22.37;13.60;;;;;;;7.34;100.00;98131.38;5093180;28;20237;-85
2023/04/16 04:29:56;;;;;;;24.27;14.33;;;;;;;7.39;100.00;98121.44;5081456;28;20229;-85
2023/04/16 04:32:22;;;;;;;22.07;13.37;;;;;;;7.38;100.00;98138.16;5081299;28;20235;-86
2023/04/16 04:34:49;;;;;;;22.33;13.33;;;;;;;7.34;100.00;98134.00;5074463;28;20215;-86
2023/04/16 04:37:15;;;;;;;26.07;14.70;;;;;;;7.34;100.00;98133.16;5073514;28;20206;-86
2023/04/16 04:39:42;;;;;;;23.33;13.93;;;;;;;7.32;100.00;98138.50;5072525;28;20688;-86
2023/04/16 04:42:09;;;;;;;25.73;15.57;;;;;;;7.31;100.00;98135.97;5074180;28;20220;-86
2023/04/16 04:44:35;;;;;;;24.20;13.50;;;;;;;7.32;100.00;98142.91;5074714;28;20209;-87
2023/04/16 04:47:03;;;;;;;24.33;14.90;;;;;;;7.30;100.00;98142.16;5073422;28;20238;-86
2023/04/16 04:49:30;;;;;;;25.70;14.93;;;;;;;7.29;100.00;98140.47;5071710;28;20203;-86
2023/04/16 04:51:57;;;;;;;25.10;15.03;;;;;;;7.35;100.00;98140.13;5072149;28;20308;-86
2023/04/16 04:54:23;;;;;;;27.63;15.03;;;;;;;7.34;100.00;98151.56;5071746;28;20226;-87
2023/04/16 04:56:51;;;;;;;25.40;14.73;;;;;;;7.36;100.00;98155.78;5072267;28;20203;-87
2023/04/16 04:59:17;;;;;;;25.60;15.00;;;;;;;7.38;100.00;98153.06;5071327;28;20262;-86
2023/04/16 05:01:44;;;;;;;26.83;14.40;;;;;;;7.38;100.00;98158.34;5071905;28;20206;-87
2023/04/16 05:04:12;;;;;;;25.53;14.87;;;;;;;7.33;100.00;98148.09;5071590;28;20718;-87
2023/04/16 05:06:38;;;;;;;28.73;16.13;;;;;;;7.31;100.00;98162.25;5071733;28;20345;-87
2023/04/16 05:09:05;;;;;;;29.13;15.77;;;;;;;7.32;100.00;98164.78;5071784;28;20212;-87
2023/04/16 05:11:33;;;;;;;27.17;15.60;;;;;;;7.36;100.00;98162.84;5072014;28;20224;-86
2023/04/16 05:14:00;;;;;;;28.30;15.83;;;;;;;7.36;100.00;98174.19;5072028;28;20235;-86
2023/04/16 05:16:26;;;;;;;32.97;16.90;;;;;;;7.31;100.00;98178.03;5071808;28;20216;-86
2023/04/16 05:18:54;;;;;;;31.07;16.03;;;;;;;7.30;100.00;98184.22;5071947;28;20218;-86
2023/04/16 05:21:22;;;;;;;30.80;17.17;;;;;;;7.33;100.00;98184.03;5070870;28;20352;-86
2023/04/16 05:23:49;;;;;;;31.70;17.03;;;;;;;7.34;100.00;98180.50;5071521;28;20241;-86
2023/04/16 05:26:15;;;;;;;35.73;18.03;;;;;;;7.33;100.00;98186.66;5071037;28;20721;-86
2023/04/16 05:28:42;;;;;;;35.23;18.37;;;;;;;7.32;100.00;98179.72;5071586;28;20218;-87
2023/04/16 05:31:08;;;;;;;37.17;18.70;;;;;;;7.36;100.00;98189.13;5070736;28;20207;-87
2023/04/16 05:33:35;;;;;;;37.53;18.60;;;;;;;7.31;100.00;98185.91;5071411;28;20252;-87
2023/04/16 05:36:01;;;;;;;36.87;20.03;;;;;;;7.32;100.00;98192.03;5071418;28;20723;-86
2023/04/16 05:38:29;;;;;;;38.57;20.07;;;;;;;7.35;100.00;98192.69;5071624;28;20209;-87
2023/04/16 05:40:55;;;;;;;38.90;21.17;;;;;;;7.33;100.00;98202.44;5070863;28;20210;-86
2023/04/16 05:43:22;;;;;;;42.97;21.37;;;;;;;7.37;100.00;98196.09;5071379;28;20235;-86
2023/04/16 05:45:48;;;;;;;40.80;21.57;;;;;;;7.39;100.00;98204.72;5071521;28;20284;-86
2023/04/16 05:48:15;;;;;;;43.80;20.93;;;;;;;7.33;100.00;98199.81;5071358;28;20209;-87
2023/04/16 05:50:42;;;;;;;45.03;22.13;;;;;;;7.34;100.00;98206.78;5070440;28;20216;-86
2023/04/16 05:53:09;;;;;;;45.73;21.97;;;;;;;7.32;100.00;98213.06;5071263;28;20234;-87
2023/04/16 05:55:37;;;;;;;46.10;23.23;;;;;;;7.32;100.00;98219.13;5071103;28;20310;-86
2023/04/16 05:58:04;;;;;;;45.87;22.80;;;;;;;7.38;100.00;98210.91;5071009;28;20215;-86
2023/04/16 06:00:30;;;;;;;43.17;23.30;;;;;;;7.41;100.00;98213.41;5069938;28;20295;-86
2023/04/16 06:02:57;;;;;;;43.90;23.10;;;;;;;7.39;100.00;98221.34;5070788;28;20230;-87
2023/04/16 06:05:25;;;;;;;47.20;22.73;;;;;;;7.37;100.00;98217.13;5071296;28;20587;-86
2023/04/16 06:07:52;;;;;;;48.13;23.43;;;;;;;7.42;100.00;98215.09;5071243;28;20233;-86
2023/04/16 06:10:18;;;;;;;47.67;23.77;;;;;;;7.43;100.00;98222.03;5070394;28;20208;-87
2023/04/16 06:12:46;;;;;;;39.40;21.37;;;;;;;7.38;100.00;98220.59;5070988;28;20227;-87
2023/04/16 06:15:13;;;;;;;43.10;22.27;;;;;;;7.43;100.00;98217.63;5070827;28;20211;-87
2023/04/16 06:17:40;;;;;;;43.40;22.20;;;;;;;7.44;100.00;98221.09;5070503;28;20206;-89
2023/04/16 06:20:07;;;;;;;49.20;23.53;;;;;;;7.43;100.00;98216.78;5069982;28;20207;-86
2023/04/16 06:22:34;;;;;;;45.80;22.77;;;;;;;7.47;100.00;98216.50;5070944;28;20246;-87
2023/04/16 06:25:00;;;;;;;42.83;22.63;;;;;;;7.49;100.00;98226.97;5070955;28;20303;-84
2023/04/16 06:27:27;;;;;;;43.67;22.10;;;;;;;7.49;100.00;98221.69;5070761;28;20239;-87
2023/04/16 06:29:56;;;;;;;43.33;22.27;;;;;;;7.41;100.00;98221.28;5069708;28;20294;-85
2023/04/16 06:32:23;;;;;;;45.03;24.47;;;;;;;7.45;100.00;98220.16;5069503;28;20225;-86
2023/04/16 06:34:50;;;;;;;43.23;22.70;;;;;;;7.45;100.00;98221.03;5070895;28;20250;-88
2023/04/16 06:37:16;;;;;;;47.30;24.13;;;;;;;7.49;100.00;98226.97;5071081;28;20272;-89
2023/04/16 06:39:43;;;;;;;46.13;24.10;;;;;;;7.48;100.00;98223.47;5069974;28;20215;-89
2023/04/16 06:42:09;;;;;;;44.60;23.63;;;;;;;7.48;100.00;98226.09;5070513;28;20539;-88
2023/04/16 06:44:36;;;;;;;46.10;23.77;;;;;;;7.47;100.00;98228.84;5070569;28;20618;-88
2023/04/16 06:47:04;;;;;;;46.37;23.17;;;;;;;7.46;100.00;98229.75;5070431;28;20821;-88
2023/04/16 06:49:30;;;;;;;46.73;25.00;;;;;;;7.51;100.00;98230.34;5070010;28;20204;-88
2023/04/16 06:51:57;;;;;;;47.93;24.40;;;;;;;7.48;100.00;98233.16;5070719;28;20204;-88
2023/04/16 06:54:24;;;;;;;41.27;21.70;;;;;;;7.50;100.00;98240.03;5069977;28;20231;-87
2023/04/16 06:56:50;;;;;;;44.37;22.23;;;;;;;7.51;100.00;98251.38;5070568;28;20271;-89
2023/04/16 06:59:17;;;;;;;39.27;22.23;;;;;;;7.51;100.00;98240.84;5069735;28;20206;-89
2023/04/16 07:01:43;;;;;;;42.27;22.37;;;;;;;7.54;100.00;98244.16;5070668;28;20234;-89
2023/04/16 07:04:12;;;;;;;39.97;20.97;;;;;;;7.55;100.00;98245.88;5070518;28;20257;-89
2023/04/16 07:06:38;;;;;;;38.73;21.43;;;;;;;7.61;100.00;98247.31;5070864;28;20226;-88
2023/04/16 07:09:05;;;;;;;37.90;20.73;;;;;;;7.58;100.00;98250.97;5070557;28;20638;-88
2023/04/16 07:11:31;;;;;;;42.67;22.27;;;;;;;7.64;100.00;98258.50;5071695;28;20207;-88
2023/04/16 07:13:57;;;;;;;42.63;23.93;;;;;;;7.67;100.00;98246.97;5072585;28;20434;-88
2023/04/16 07:16:24;;;;;;;36.43;20.77;;;;;;;7.76;100.00;98252.56;5071868;28;20456;-89
2023/04/16 07:18:51;;;;;;;34.40;20.13;;;;;;;7.74;100.00;98256.22;5073141;28;20205;-87
2023/04/16 07:21:18;;;;;;;33.97;19.43;;;;;;;7.74;100.00;98250.97;5073108;28;20219;-88
2023/04/16 07:23:45;;;;;;;39.13;24.08;;;;;;;7.74;100.00;98256.22;5073078;28;20442;-87
2023/04/16 07:26:12;;;;;;;38.93;21.50;;;;;;;7.76;100.00;98252.56;5073912;28;20257;-88
2023/04/16 07:28:38;;;;;;;33.97;19.30;;;;;;;7.79;100.00;98259.44;5072290;28;20229;-88
2023/04/16 07:31:05;;;;;;;33.17;19.17;;;;;;;7.78;100.00;98263.00;5071390;28;20213;-88
2023/04/16 07:33:32;;;;;;;33.27;20.10;;;;;;;7.79;100.00;98265.53;5073226;28;20228;-88
2023/04/16 07:35:58;;;;;;;36.03;20.03;;;;;;;7.76;100.00;98264.88;5073535;28;20218;-88
2023/04/16 07:38:26;;;;;;;33.17;19.93;;;;;;;7.81;100.00;98271.59;5072574;28;20228;-90
2023/04/16 07:40:53;;;;;;;33.07;19.83;;;;;;;7.83;100.00;98268.88;5071520;28;20208;-88
2023/04/16 07:43:20;;;;;;;34.60;19.17;;;;;;;7.75;100.00;98277.19;5070476;28;20232;-88
2023/04/16 07:45:47;;;;;;;35.20;18.73;;;;;;;7.74;100.00;98274.63;5075742;28;20226;-87
2023/04/16 07:48:13;;;;;;;34.03;19.03;;;;;;;7.83;100.00;98280.22;5081583;28;20237;-87
2023/04/16 07:50:42;;;;;;;31.33;18.77;;;;;;;7.82;100.00;98288.19;5072632;28;20687;-88
2023/04/16 07:53:08;;;;;;;32.33;18.10;;;;;;;7.90;100.00;98286.00;5069493;28;20231;-87
2023/04/16 07:55:36;;;;;;;33.33;18.53;;;;;;;7.93;100.00;98280.56;5069792;28;20214;-87
2023/04/16 07:58:05;;;;;;;29.13;16.83;;;;;;;8.05;100.00;98290.41;5072442;28;20216;-88
2023/04/16 08:00:31;;;;;;;35.70;21.52;;;;;;;8.02;100.00;98290.59;5070955;28;20445;-86
2023/04/16 08:02:58;;;;;;;29.70;17.77;;;;;;;7.85;100.00;98288.88;5072837;28;20850;-78
2023/04/16 08:05:24;;;;;;;30.00;17.67;;;;;;;7.88;100.00;98303.66;5072900;28;20235;-85
2023/04/16 08:07:51;;;;;;;31.17;17.70;;;;;;;7.83;100.00;98292.56;5072590;28;20235;-86
2023/04/16 08:10:17;;;;;;;30.17;18.50;;;;;;;7.87;100.00;98312.47;5072124;28;20274;-86
2023/04/16 08:12:45;;;;;;;30.37;17.77;;;;;;;7.81;100.00;98303.16;5072989;28;20589;-85
2023/04/16 08:15:12;;;;;;;27.40;16.67;;;;;;;7.82;100.00;98304.00;5072814;28;20210;-85
2023/04/16 08:17:38;;;;;;;27.10;16.83;;;;;;;7.87;100.00;98312.47;5072556;28;20213;-86
2023/04/16 08:20:06;;;;;;;32.28;19.73;;;;;;;7.91;100.00;98306.13;5071774;28;20430;-86
2023/04/16 08:25:04;;;;;;;27.90;17.67;;;;;;;7.97;100.00;98313.69;5091373;28;20278;-78
2023/04/16 08:27:31;;;;;;;26.97;16.53;;;;;;;8.00;100.00;98321.38;5092610;28;20228;-77
2023/04/16 08:29:59;;;;;;;27.93;16.17;;;;;;;7.98;100.00;98318.88;5091919;28;20203;-78
2023/04/16 08:32:26;;;;;;;26.23;16.70;;;;;;;8.00;100.00;98329.28;5089195;28;20218;-79
2023/04/16 08:34:52;;;;;;;26.87;15.83;;;;;;;7.97;100.00;98334.72;5091598;28;20310;-79
2023/04/16 08:37:19;;;;;;;28.20;16.47;;;;;;;7.92;100.00;98336.75;5091383;28;20223;-79
2023/04/16 08:39:45;;;;;;;24.57;15.07;;;;;;;7.97;100.00;98340.00;5089982;28;20205;-77
2023/04/16 08:42:18;;;;;;;26.73;16.57;;;;;;;7.93;100.00;98333.19;5091406;28;20207;-79
2023/04/16 08:44:49;;;;;;;26.63;16.57;;;;;;;7.96;100.00;98338.31;5088488;28;20287;-80
2023/04/16 08:47:17;;;;;;;23.77;15.00;;;;;;;7.93;100.00;98338.47;5084056;28;20227;-79
2023/04/16 08:49:45;;;;;;;23.27;14.27;;;;;;;8.04;100.00;98346.63;5089967;28;20229;-80
2023/04/16 08:52:18;;;;;;;26.67;16.27;;;;;;;8.06;100.00;98355.25;5091409;28;20249;-78
2023/04/16 08:54:51;;;;;;;25.30;15.47;;;;;;;8.06;100.00;98350.00;5089301;28;20604;-78
2023/04/16 08:57:19;;;;;;;23.13;15.07;;;;;;;8.12;100.00;98355.78;5089824;28;20212;-78
2023/04/16 08:59:46;;;;;;;22.43;15.13;;;;;;;8.20;100.00;98353.59;5089573;28;20215;-78
2023/04/16 09:02:13;;;;;;;21.63;15.03;;;;;;;8.22;100.00;98350.88;5087253;28;20211;-80
2023/04/16 09:04:42;;;;;;;26.67;15.47;;;;;;;8.24;100.00;98354.25;5088549;28;20231;-79
2023/04/16 09:07:09;;;;;;;26.43;16.77;;;;;;;8.34;100.00;98358.91;5084662;28;20217;-80
2023/04/16 09:09:37;;;;;;;22.97;15.13;;;;;;;8.32;100.00;98358.16;5088395;28;20212;-79
2023/04/16 09:12:04;;;;;;;24.53;15.90;;;;;;;8.34;100.00;98360.72;5090540;28;20211;-79
2023/04/16 09:14:31;;;;;;;22.47;15.77;;;;;;;8.24;100.00;98359.53;5090188;28;20235;-79
2023/04/16 09:17:00;;;;;;;24.17;15.50;;;;;;;8.23;100.00;98368.38;5087869;28;20291;-79
2023/04/16 09:19:26;;;;;;;24.73;16.10;;;;;;;8.24;100.00;98363.03;5090093;28;20564;-79
2023/04/16 09:21:54;;;;;;;26.60;15.97;;;;;;;8.24;100.00;98364.81;5090475;28;20348;-80
2023/04/16 09:24:21;;;;;;;22.20;15.00;;;;;;;8.23;100.00;98358.69;5088726;28;20231;-79
2023/04/16 09:26:48;;;;;;;25.03;15.57;;;;;;;8.29;100.00;98368.88;5090164;28;20218;-79
2023/04/16 09:29:33;;;;;;;24.70;15.80;;;;;;;8.28;100.00;98361.06;5089213;28;20240;-79
2023/04/16 09:32:02;;;;;;;27.27;17.17;;;;;;;8.35;100.00;98378.22;5089638;28;20262;-79
2023/04/16 09:34:30;;;;;;;27.60;15.90;;;;;;;8.31;100.00;98382.81;5089444;28;20602;-79
2023/04/16 09:37:14;;;;;;;27.13;16.83;;;;;;;8.31;100.00;98381.94;5090308;28;20700;-79
2023/04/16 09:39:42;;;;;;;23.10;14.30;;;;;;;8.31;100.00;98376.69;5087672;28;20247;-79
2023/04/16 09:42:08;;;;;;;23.77;14.63;;;;;;;8.27;100.00;98380.44;5089625;28;20210;-78
2023/04/16 09:44:36;;;;;;;22.00;14.87;;;;;;;8.27;100.00;98377.81;5090084;28;20237;-79
2023/04/16 09:47:07;;;;;;;23.90;15.07;;;;;;;8.32;100.00;98378.41;5080580;28;20222;-78
2023/04/16 09:49:34;;;;;;;26.73;15.37;;;;;;;8.32;100.00;98378.41;5088904;28;20264;-78
2023/04/16 09:52:02;;;;;;;25.80;15.73;;;;;;;8.33;100.00;98390.63;5089150;28;20211;-79
2023/04/16 09:54:29;;;;;;;22.63;15.27;;;;;;;8.35;100.00;98386.13;5089026;28;20258;-79
2023/04/16 09:56:57;;;;;;;26.10;16.03;;;;;;;8.38;100.00;98384.16;5089794;28;20219;-79
2023/04/16 09:59:24;;;;;;;25.23;14.83;;;;;;;8.40;100.00;98389.34;5089353;28;20199;-80
2023/04/16 10:01:52;;;;;;;31.73;17.13;;;;;;;8.41;100.00;98394.53;5088149;28;20233;-78
2023/04/16 10:04:18;;;;;;;25.73;15.60;;;;;;;8.44;100.00;98396.97;5089205;28;20608;-80
2023/04/16 10:07:04;;;;;;;23.60;14.90;;;;;;;8.42;100.00;98392.72;5089791;28;20216;-77
2023/04/16 10:09:32;;;;;;;29.05;18.88;;;;;;;8.36;100.00;98393.06;5087576;28;20482;-79
2023/04/16 10:11:59;;;;;;;24.37;15.33;;;;;;;8.33;100.00;98394.09;5089143;28;20202;-81
2023/04/16 10:14:25;;;;;;;26.60;16.47;;;;;;;8.38;100.00;98401.75;5089980;28;20736;-81
2023/04/16 10:16:53;;;;;;;26.10;15.53;;;;;;;8.45;100.00;98396.03;5090532;28;20209;-75
2023/04/16 10:19:20;;;;;;;25.87;15.97;;;;;;;8.40;100.00;98402.50;5089824;28;20315;-76
2023/04/16 10:21:47;;;;;;;25.90;16.63;;;;;;;8.38;100.00;98405.22;5090689;28;20212;-80
2023/04/16 10:24:17;;;;;;;28.07;15.47;;;;;;;8.46;100.00;98402.16;5090673;28;20233;-83
2023/04/16 10:26:44;;;;;;;27.30;16.63;;;;;;;8.48;100.00;98410.81;5090677;28;20201;-80
2023/04/16 10:29:11;;;;;;;27.77;16.03;;;;;;;8.51;100.00;98408.03;5089877;28;20243;-79
2023/04/16 10:31:40;;;;;;;31.07;17.77;;;;;;;8.51;100.00;98418.56;5090509;28;20301;-80
2023/04/16 10:34:08;;;;;;;25.60;15.07;;;;;;;8.51;100.00;98411.50;5090528;28;20232;-81
2023/04/16 10:36:37;;;;;;;25.13;15.87;;;;;;;8.47;100.00;98409.13;5090614;28;20208;-80
2023/04/16 10:39:04;;;;;;;29.53;16.50;;;;;;;8.49;100.00;98404.63;5090348;28;20647;-78
2023/04/16 10:41:33;;;;;;;26.27;15.73;;;;;;;8.47;100.00;98406.50;5089983;28;20219;-78
2023/04/16 10:44:08;;;;;;;25.70;15.27;;;;;;;8.47;100.00;98407.34;5090419;28;20235;-78
2023/04/16 10:46:38;;;;;;;25.70;14.67;;;;;;;8.47;100.00;98417.03;5093399;28;20242;-79
2023/04/16 10:49:13;;;;;;;23.00;14.30;;;;;;;8.50;100.00;98407.16;5091348;28;20228;-77
2023/04/16 10:51:40;;;;;;;23.43;14.60;;;;;;;8.45;100.00;98408.38;5092887;28;20795;-77
2023/04/16 10:54:20;;;;;;;20.87;12.13;;;;;;;8.48;100.00;98406.41;5094281;28;20224;-78
2023/04/16 10:56:50;;;;;;;21.83;13.10;;;;;;;8.45;100.00;98413.66;5094413;28;20234;-78
2023/04/16 10:59:19;;;;;;;21.30;12.27;;;;;;;8.44;100.00;98410.16;5093917;28;20261;-78
2023/04/16 11:01:47;;;;;;;20.67;12.23;;;;;;;8.42;100.00;98411.16;5094495;28;20227;-78
2023/04/16 11:04:28;;;;;;;20.50;11.73;;;;;;;8.38;100.00;98407.03;5094310;28;20266;-78
2023/04/16 11:07:02;;;;;;;24.63;14.83;;;;;;;8.37;100.00;98414.06;5094359;28;20631;-78
2023/04/16 11:09:52;;;;;;;20.17;11.87;;;;;;;8.39;100.00;98421.88;5093340;28;20231;-78
2023/04/16 11:12:21;;;;;;;19.03;10.87;;;;;;;8.36;100.00;98412.38;5094373;28;20211;-78
2023/04/16 11:14:49;;;;;;;19.10;11.77;;;;;;;8.34;100.00;98416.84;5094051;28;20227;-78
2023/04/16 11:17:16;;;;;;;19.00;11.03;;;;;;;8.41;100.00;98420.00;5094267;28;20216;-78
2023/04/16 11:19:43;;;;;;;21.30;12.13;;;;;;;8.41;100.00;98417.38;5093216;28;20208;-78